Time;durP1;ratioP1;P1;durP2;ratioP2;P2;SDS_P1;SDS_P2;PMS_P1;PMS_P2;Temp;Humidity;BMP_temperature;BMP_pressure;BME280_temperature;BME280_humidity;BME280_pressure;Samples;Min_cycle;Max_cycle;Signal;HPM_P1;HPM_P2
2023/10/22 00:07:01;;;;;;;0.85;0.80;;;11.00;99.90;;;;;;5021345;28;20202;-88
2023/10/22 00:12:12;;;;;;;0.70;0.70;;;11.00;99.90;;;;;;5021923;28;20643;-87
2023/10/22 00:20:25;;;;;;;0.95;0.80;;;10.90;99.90;;;;;;5031331;28;20285;-87
2023/10/22 00:26:14;;;;;;;1.15;0.80;;;11.00;99.90;;;;;;5005637;28;20198;-88
2023/10/22 00:28:41;;;;;;;1.00;0.90;;;11.00;99.90;;;;;;5010854;28;20225;-88
2023/10/22 00:31:08;;;;;;;0.70;0.70;;;11.00;99.90;;;;;;5027868;28;20202;-88
2023/10/22 00:33:39;;;;;;;0.88;0.80;;;11.00;99.90;;;;;;5030580;28;20270;-88
2023/10/22 00:36:06;;;;;;;1.13;0.90;;;11.00;99.90;;;;;;5030143;28;20206;-88
2023/10/22 00:41:16;;;;;;;1.60;0.90;;;10.90;99.90;;;;;;5031009;28;20195;-88
2023/10/22 00:43:45;;;;;;;0.60;0.60;;;10.90;99.90;;;;;;5033500;28;20191;-89
2023/10/22 00:46:18;;;;;;;0.60;0.60;;;10.80;99.90;;;;;;5035450;28;20198;-87
2023/10/22 00:48:45;;;;;;;0.82;0.60;;;10.80;99.90;;;;;;5035491;28;20310;-87
2023/10/22 00:51:14;;;;;;;0.93;0.68;;;10.80;99.90;;;;;;5034433;28;20214;-87
2023/10/22 00:56:29;;;;;;;3.03;0.85;;;10.80;99.90;;;;;;5035257;28;20643;-88
2023/10/22 00:58:59;;;;;;;0.88;0.80;;;10.80;99.90;;;;;;5034380;28;20217;-88
2023/10/22 01:01:28;;;;;;;1.70;0.80;;;10.80;99.90;;;;;;5034725;28;20190;-89
2023/10/22 01:03:55;;;;;;;1.65;0.77;;;10.80;99.90;;;;;;5034515;28;20207;-88
2023/10/22 01:06:23;;;;;;;0.73;0.73;;;10.80;99.90;;;;;;5030466;28;20217;-87
2023/10/22 01:08:54;;;;;;;1.00;0.75;;;10.80;99.90;;;;;;5032341;28;20205;-87
2023/10/22 01:11:21;;;;;;;0.73;0.63;;;10.90;99.90;;;;;;5018027;28;20202;-87
2023/10/22 01:13:51;;;;;;;1.70;0.70;;;10.90;99.90;;;;;;5014522;28;20233;-87
2023/10/22 01:16:18;;;;;;;1.45;0.73;;;11.00;99.90;;;;;;5030495;28;20565;-87
2023/10/22 01:18:45;;;;;;;0.73;0.73;;;11.00;99.90;;;;;;5030467;28;20209;-87
2023/10/22 01:21:12;;;;;;;0.60;0.60;;;10.90;99.90;;;;;;5033071;28;20670;-88
2023/10/22 01:23:41;;;;;;;0.77;0.77;;;10.90;99.90;;;;;;5035035;28;20738;-87
2023/10/22 01:26:09;;;;;;;1.75;0.70;;;11.00;99.90;;;;;;5033495;28;20550;-87
2023/10/22 01:28:36;;;;;;;1.70;0.70;;;10.90;99.90;;;;;;5032804;28;20201;-87
2023/10/22 01:31:04;;;;;;;1.88;0.70;;;10.90;99.90;;;;;;5030880;28;20203;-87
2023/10/22 01:33:30;;;;;;;0.70;0.70;;;10.80;99.90;;;;;;5032817;28;20250;-88
2023/10/22 01:35:57;;;;;;;1.40;0.90;;;10.80;99.90;;;;;;5034281;28;20229;-88
2023/10/22 01:38:24;;;;;;;0.80;0.80;;;10.80;99.90;;;;;;5033023;28;20210;-87
2023/10/22 01:40:56;;;;;;;0.80;0.70;;;10.80;99.90;;;;;;5032078;28;20567;-88
2023/10/22 01:43:23;;;;;;;0.65;0.65;;;10.70;99.90;;;;;;5019921;28;20194;-88
2023/10/22 01:45:50;;;;;;;0.82;0.77;;;10.70;99.90;;;;;;5032788;28;20191;-87
2023/10/22 01:48:17;;;;;;;0.85;0.70;;;10.70;99.90;;;;;;5032001;28;20286;-87
2023/10/22 01:50:44;;;;;;;0.77;0.77;;;10.60;99.90;;;;;;5027551;28;20219;-88
2023/10/22 01:53:11;;;;;;;0.70;0.70;;;10.60;99.90;;;;;;5021200;28;20631;-87
2023/10/22 01:55:40;;;;;;;0.70;0.70;;;10.70;99.90;;;;;;5023465;28;20202;-88
2023/10/22 01:58:09;;;;;;;1.33;0.52;;;10.70;99.90;;;;;;5033406;28;20601;-88
2023/10/22 02:00:36;;;;;;;1.08;0.60;;;10.60;99.90;;;;;;5033807;28;20199;-88
2023/10/22 02:03:04;;;;;;;1.10;0.68;;;10.70;99.90;;;;;;5034628;28;20276;-88
2023/10/22 02:05:33;;;;;;;2.50;0.95;;;10.60;99.90;;;;;;5032914;28;20190;-88
2023/10/22 02:08:00;;;;;;;0.85;0.73;;;10.70;99.90;;;;;;5034016;28;20190;-88
2023/10/22 02:10:27;;;;;;;1.38;1.08;;;10.70;99.90;;;;;;5032670;28;20224;-88
2023/10/22 02:12:54;;;;;;;0.70;0.70;;;10.70;99.90;;;;;;5032502;28;20201;-88
2023/10/22 02:15:23;;;;;;;2.03;0.90;;;10.70;99.90;;;;;;5032002;28;20222;-88
2023/10/22 02:17:51;;;;;;;1.52;0.77;;;10.70;99.90;;;;;;5020423;28;20639;-88
2023/10/22 02:20:19;;;;;;;1.38;0.80;;;10.70;99.90;;;;;;5033374;28;20205;-88
2023/10/22 02:22:46;;;;;;;0.80;0.80;;;10.70;99.90;;;;;;5032099;28;20191;-87
2023/10/22 02:25:12;;;;;;;1.25;0.80;;;10.70;99.90;;;;;;5033221;28;20547;-88
2023/10/22 02:27:39;;;;;;;0.70;0.70;;;10.70;99.90;;;;;;5033002;28;20209;-87
2023/10/22 02:30:08;;;;;;;1.13;0.70;;;10.80;99.90;;;;;;5032365;28;20542;-88
2023/10/22 02:32:36;;;;;;;0.70;0.70;;;10.80;99.90;;;;;;5028670;28;20194;-88
2023/10/22 02:35:04;;;;;;;0.50;0.50;;;10.80;99.90;;;;;;5031760;28;20701;-88
2023/10/22 02:37:31;;;;;;;1.58;0.55;;;10.80;99.90;;;;;;5032952;28;20210;-88
2023/10/22 02:39:58;;;;;;;1.73;0.70;;;10.90;99.90;;;;;;5026908;28;20194;-88
2023/10/22 02:42:26;;;;;;;0.63;0.60;;;10.80;99.90;;;;;;5032570;28;20202;-87
2023/10/22 02:44:53;;;;;;;0.60;0.50;;;10.80;99.90;;;;;;5029577;28;20198;-87
2023/10/22 02:50:28;;;;;;;0.50;0.50;;;10.80;99.90;;;;;;5025051;28;20651;-88
2023/10/22 02:52:55;;;;;;;1.00;0.90;;;10.80;99.90;;;;;;5029735;28;20194;-88
2023/10/22 02:55:22;;;;;;;1.48;0.70;;;10.80;99.90;;;;;;5031581;28;20225;-88
2023/10/22 02:57:50;;;;;;;3.28;0.85;;;10.80;99.90;;;;;;5033141;28;20190;-88
2023/10/22 03:00:19;;;;;;;2.15;0.90;;;10.80;99.90;;;;;;5028516;28;20214;-87
2023/10/22 03:02:46;;;;;;;0.70;0.70;;;10.70;99.90;;;;;;5033305;28;20221;-88
2023/10/22 03:07:59;;;;;;;1.15;0.70;;;10.70;99.90;;;;;;5019425;28;20207;-88
2023/10/22 03:10:26;;;;;;;1.67;0.63;;;10.70;99.90;;;;;;5029681;28;20639;-88
2023/10/22 03:12:53;;;;;;;0.88;0.80;;;10.80;99.90;;;;;;5029639;28;20206;-88
2023/10/22 03:15:20;;;;;;;0.88;0.60;;;10.80;99.90;;;;;;5030104;28;20225;-88
2023/10/22 03:17:46;;;;;;;1.25;0.70;;;10.80;99.90;;;;;;5032626;28;20562;-88
2023/10/22 03:20:17;;;;;;;0.50;0.50;;;10.70;99.90;;;;;;5031209;28;20198;-88
2023/10/22 03:22:43;;;;;;;0.70;0.70;;;10.70;99.90;;;;;;5026827;28;20230;-88
2023/10/22 03:25:12;;;;;;;2.78;0.60;;;10.70;99.90;;;;;;5031243;28;20190;-88
2023/10/22 03:27:40;;;;;;;1.45;0.80;;;10.70;99.90;;;;;;5030843;28;20647;-88
2023/10/22 03:30:10;;;;;;;1.35;0.80;;;10.80;99.90;;;;;;5021534;28;20213;-87
2023/10/22 03:32:39;;;;;;;0.75;0.70;;;10.70;99.90;;;;;;5031275;28;20643;-88
2023/10/22 03:35:08;;;;;;;0.68;0.63;;;10.70;99.90;;;;;;5030500;28;20225;-88
2023/10/22 03:37:36;;;;;;;1.00;0.88;;;10.70;99.90;;;;;;5013149;28;20591;-88
2023/10/22 03:40:06;;;;;;;1.10;0.80;;;10.70;99.90;;;;;;5024776;28;20222;-88
2023/10/22 03:42:33;;;;;;;1.08;0.90;;;10.60;99.90;;;;;;5031089;28;20210;-88
2023/10/22 03:45:00;;;;;;;0.85;0.70;;;10.60;99.90;;;;;;5032302;28;20202;-88
2023/10/22 03:47:27;;;;;;;0.88;0.88;;;10.60;99.90;;;;;;5027543;28;20202;-88
2023/10/22 03:49:54;;;;;;;0.80;0.50;;;10.60;99.90;;;;;;5029497;28;20195;-88
2023/10/22 03:52:21;;;;;;;1.83;0.60;;;10.60;99.90;;;;;;5030735;28;20225;-88
2023/10/22 03:54:50;;;;;;;0.85;0.70;;;10.60;99.90;;;;;;5014907;28;20219;-88
2023/10/22 03:57:17;;;;;;;0.68;0.55;;;10.60;99.90;;;;;;5031517;28;20199;-88
2023/10/22 03:59:44;;;;;;;3.72;0.80;;;10.60;99.90;;;;;;5031156;28;20725;-88
2023/10/22 04:02:10;;;;;;;0.60;0.60;;;10.50;99.90;;;;;;5026360;28;20197;-88
2023/10/22 04:04:37;;;;;;;1.13;0.70;;;10.50;99.90;;;;;;5030795;28;20505;-88
2023/10/22 04:07:04;;;;;;;0.68;0.60;;;10.50;99.90;;;;;;5031752;28;20297;-88
2023/10/22 04:09:33;;;;;;;1.50;0.80;;;10.50;99.90;;;;;;5032327;28;20191;-88
2023/10/22 04:14:43;;;;;;;1.38;1.00;;;10.40;99.90;;;;;;5026680;28;20214;-88
2023/10/22 04:17:11;;;;;;;2.05;0.80;;;10.50;99.90;;;;;;5027023;28;20198;-88
2023/10/22 04:20:00;;;;;;;3.15;0.70;;;10.60;99.90;;;;;;5030430;28;20241;-88
2023/10/22 04:22:27;;;;;;;1.20;0.60;;;10.50;99.90;;;;;;5032761;28;20199;-89
2023/10/22 04:24:54;;;;;;;2.38;0.60;;;10.50;99.90;;;;;;5022160;28;20257;-87
2023/10/22 04:30:07;;;;;;;0.80;0.80;;;10.60;99.90;;;;;;5014916;28;20234;-88
2023/10/22 04:32:34;;;;;;;0.77;0.60;;;10.60;99.90;;;;;;5027448;28;20615;-87
2023/10/22 04:35:01;;;;;;;0.68;0.60;;;10.60;99.90;;;;;;5030913;28;20312;-88
2023/10/22 04:37:28;;;;;;;0.60;0.60;;;10.50;99.90;;;;;;5031994;28;20195;-88
2023/10/22 04:39:55;;;;;;;1.65;0.90;;;10.50;99.90;;;;;;5030642;28;20198;-88
2023/10/22 04:45:12;;;;;;;1.70;0.70;;;10.60;99.90;;;;;;5031474;28;20221;-88
2023/10/22 04:47:39;;;;;;;0.85;0.85;;;10.50;99.90;;;;;;5026118;28;20662;-88
2023/10/22 04:50:06;;;;;;;0.80;0.77;;;10.50;99.90;;;;;;5031031;28;20198;-88
2023/10/22 04:52:34;;;;;;;3.13;0.80;;;10.50;99.90;;;;;;5017882;28;20703;-88
2023/10/22 04:55:02;;;;;;;1.35;0.82;;;10.50;99.90;;;;;;5024188;28;20557;-88
2023/10/22 04:57:36;;;;;;;1.25;0.80;;;10.50;99.90;;;;;;5025549;28;20549;-88
2023/10/22 05:00:07;;;;;;;1.20;0.80;;;10.50;99.90;;;;;;5031979;28;20216;-88
2023/10/22 05:02:34;;;;;;;0.85;0.63;;;10.40;99.90;;;;;;5022947;28;20644;-88
2023/10/22 05:05:01;;;;;;;0.90;0.70;;;10.40;99.90;;;;;;5023203;28;20195;-88
2023/10/22 05:07:43;;;;;;;1.63;0.70;;;10.40;99.90;;;;;;5030387;28;20202;-88
2023/10/22 05:12:57;;;;;;;1.52;0.80;;;10.40;99.90;;;;;;5029353;28;20244;-88
2023/10/22 05:15:24;;;;;;;1.95;0.88;;;10.40;99.90;;;;;;5019400;28;20276;-89
2023/10/22 05:17:51;;;;;;;0.80;0.80;;;10.40;99.90;;;;;;5013892;28;20206;-88
2023/10/22 05:20:19;;;;;;;1.52;0.60;;;10.40;99.90;;;;;;5031080;28;20203;-88
2023/10/22 05:22:48;;;;;;;1.38;0.88;;;10.40;99.90;;;;;;5029414;28;20206;-88
2023/10/22 05:25:33;;;;;;;0.98;0.70;;;10.40;99.90;;;;;;5026492;28;20263;-88
2023/10/22 05:28:01;;;;;;;2.05;0.70;;;10.40;99.90;;;;;;5031739;28;20206;-88
2023/10/22 05:30:28;;;;;;;1.40;0.60;;;10.40;99.90;;;;;;5030678;28;20277;-88
2023/10/22 05:32:55;;;;;;;0.70;0.70;;;10.40;99.90;;;;;;5033539;28;20264;-87
2023/10/22 05:35:22;;;;;;;1.70;0.65;;;10.40;99.90;;;;;;5017163;28;20222;-87
2023/10/22 05:37:51;;;;;;;0.80;0.80;;;10.40;99.90;;;;;;5034236;28;20199;-88
2023/10/22 05:40:19;;;;;;;0.90;0.75;;;10.40;99.90;;;;;;5026575;28;20195;-88
2023/10/22 05:42:46;;;;;;;1.20;0.70;;;10.40;99.90;;;;;;5033708;28;20218;-88
2023/10/22 05:45:15;;;;;;;0.90;0.70;;;10.40;99.90;;;;;;5035048;28;20199;-88
2023/10/22 05:47:42;;;;;;;1.15;0.80;;;10.40;99.90;;;;;;5033148;28;20194;-88
2023/10/22 05:50:09;;;;;;;2.60;0.60;;;10.40;99.90;;;;;;5025580;28;20844;-88
2023/10/22 05:52:36;;;;;;;1.02;0.73;;;10.40;99.90;;;;;;5032369;28;20287;-88
2023/10/22 05:55:15;;;;;;;0.80;0.80;;;10.50;99.90;;;;;;5033643;28;20214;-87
2023/10/22 05:57:58;;;;;;;0.65;0.65;;;10.50;99.90;;;;;;5033441;28;20198;-88
2023/10/22 06:00:28;;;;;;;1.38;0.90;;;10.50;99.90;;;;;;5030922;28;20195;-88
2023/10/22 06:02:58;;;;;;;0.70;0.70;;;10.50;99.90;;;;;;5028128;28;20194;-88
2023/10/22 06:05:25;;;;;;;0.85;0.85;;;10.50;99.90;;;;;;5033835;28;20655;-88
2023/10/22 06:10:39;;;;;;;2.15;1.00;;;10.60;99.90;;;;;;5018304;28;20205;-88
2023/10/22 06:13:06;;;;;;;1.08;0.98;;;10.60;99.90;;;;;;5042055;28;20213;-87
2023/10/22 06:18:16;;;;;;;3.13;1.05;;;10.80;99.90;;;;;;5034630;28;20198;-87
2023/10/22 06:20:44;;;;;;;2.38;1.60;;;10.90;99.90;;;;;;5035082;28;20205;-87
2023/10/22 06:23:11;;;;;;;1.52;1.33;;;11.00;99.90;;;;;;5034450;28;20214;-88
2023/10/22 06:25:38;;;;;;;1.30;1.20;;;11.00;99.90;;;;;;5032448;28;20206;-87
2023/10/22 06:28:06;;;;;;;1.70;1.00;;;11.00;99.90;;;;;;5027710;28;20198;-87
2023/10/22 06:30:34;;;;;;;1.00;1.00;;;11.20;99.90;;;;;;5030830;28;20191;-88
2023/10/22 06:33:17;;;;;;;1.80;0.85;;;11.10;99.90;;;;;;5033014;28;20186;-87
2023/10/22 06:35:44;;;;;;;0.77;0.68;;;11.00;99.90;;;;;;5031374;28;20293;-87
2023/10/22 06:38:11;;;;;;;1.38;0.90;;;11.00;99.90;;;;;;5031868;28;20202;-88
2023/10/22 06:40:38;;;;;;;0.80;0.80;;;11.00;99.90;;;;;;5031880;28;20195;-87
2023/10/22 06:45:45;;;;;;;3.42;1.42;;;11.10;99.90;;;;;;5030732;28;20275;-87
2023/10/22 06:48:14;;;;;;;0.88;0.88;;;11.30;99.90;;;;;;5032801;28;20558;-87
2023/10/22 06:50:43;;;;;;;1.30;1.10;;;11.40;99.90;;;;;;5033981;28;20690;-87
2023/10/22 06:53:10;;;;;;;2.42;0.90;;;11.40;99.90;;;;;;5032585;28;20198;-87
2023/10/22 06:55:41;;;;;;;1.83;1.10;;;11.40;99.90;;;;;;5033009;28;20221;-88
2023/10/22 06:58:08;;;;;;;1.05;0.93;;;11.50;99.90;;;;;;5021853;28;20214;-88
2023/10/22 07:00:36;;;;;;;2.85;1.40;;;11.50;99.90;;;;;;5028700;28;20190;-87
2023/10/22 07:03:03;;;;;;;2.53;1.20;;;11.50;99.90;;;;;;5024771;28;20761;-88
2023/10/22 07:05:31;;;;;;;2.88;1.23;;;11.50;99.90;;;;;;5033207;28;20564;-87
2023/10/22 07:07:59;;;;;;;1.50;1.40;;;11.50;99.90;;;;;;5031189;28;20649;-87
2023/10/22 07:10:26;;;;;;;1.40;1.23;;;11.50;99.90;;;;;;5032279;28;20584;-88
2023/10/22 07:12:54;;;;;;;1.63;1.20;;;11.50;99.90;;;;;;5031238;28;20206;-88
2023/10/22 07:15:24;;;;;;;1.38;1.02;;;11.50;99.90;;;;;;5032266;28;20227;-89
2023/10/22 07:17:52;;;;;;;1.25;1.10;;;11.50;99.90;;;;;;5031600;28;20202;-87
2023/10/22 07:20:21;;;;;;;1.05;0.82;;;11.60;99.90;;;;;;5031008;28;20600;-86
2023/10/22 07:22:49;;;;;;;1.70;1.50;;;11.60;99.90;;;;;;5024700;28;20195;-88
2023/10/22 07:25:18;;;;;;;2.45;0.98;;;11.60;99.90;;;;;;5032647;28;20205;-87
2023/10/22 07:27:48;;;;;;;1.48;1.10;;;11.60;99.90;;;;;;5029066;28;20201;-86
2023/10/22 07:30:15;;;;;;;1.10;1.00;;;11.50;99.90;;;;;;5029634;28;20187;-85
2023/10/22 07:32:42;;;;;;;1.52;1.25;;;11.60;99.90;;;;;;5030350;28;20648;-87
2023/10/22 07:35:09;;;;;;;1.77;1.65;;;11.60;99.90;;;;;;5027963;28;20218;-86
2023/10/22 07:37:37;;;;;;;3.00;2.05;;;11.70;99.90;;;;;;5029027;28;20198;-85
2023/10/22 07:40:04;;;;;;;2.17;1.83;;;11.70;99.90;;;;;;5028724;28;20278;-84
2023/10/22 07:42:38;;;;;;;1.77;1.67;;;11.80;99.90;;;;;;5031473;28;20202;-86
2023/10/22 07:45:06;;;;;;;3.80;2.50;;;11.90;99.90;;;;;;5023544;28;20195;-84
2023/10/22 07:47:33;;;;;;;1.70;1.60;;;12.00;99.90;;;;;;5027516;28;20198;-84
2023/10/22 07:50:00;;;;;;;2.50;2.28;;;12.00;99.90;;;;;;5027069;28;20196;-84
2023/10/22 07:52:27;;;;;;;2.97;2.40;;;12.00;99.90;;;;;;5029931;28;20567;-86
2023/10/22 07:54:54;;;;;;;2.90;2.30;;;12.10;99.80;;;;;;5031071;28;20213;-85
2023/10/22 07:57:20;;;;;;;3.65;2.30;;;12.10;99.70;;;;;;5031111;28;20203;-84
2023/10/22 07:59:49;;;;;;;2.67;1.95;;;12.00;99.90;;;;;;5031962;28;20194;-84
2023/10/22 08:02:14;;;;;;;1.75;1.65;;;11.90;99.90;;;;;;5030855;28;20201;-85
2023/10/22 08:04:42;;;;;;;3.10;1.67;;;11.80;99.90;;;;;;5030818;28;20569;-86
2023/10/22 08:07:08;;;;;;;2.22;1.50;;;11.60;99.90;;;;;;5026601;28;20947;-86
2023/10/22 08:09:35;;;;;;;3.20;1.30;;;11.50;99.90;;;;;;5030900;28;20203;-85
2023/10/22 08:12:04;;;;;;;1.08;1.00;;;11.40;99.90;;;;;;5030080;28;20522;-85
2023/10/22 08:14:31;;;;;;;3.22;1.40;;;11.20;99.90;;;;;;5025854;28;20214;-84
2023/10/22 08:16:59;;;;;;;2.85;1.20;;;11.20;99.90;;;;;;5026571;28;20210;-85
2023/10/22 08:19:26;;;;;;;3.30;1.38;;;11.20;99.90;;;;;;5029453;28;20202;-86
2023/10/22 08:21:53;;;;;;;2.28;1.52;;;11.30;99.90;;;;;;5028734;28;20853;-87
2023/10/22 08:24:20;;;;;;;2.30;1.00;;;11.30;99.90;;;;;;5028846;28;20205;-84
2023/10/22 08:26:47;;;;;;;3.58;1.30;;;11.40;99.90;;;;;;5027993;28;20194;-87
2023/10/22 08:29:14;;;;;;;1.60;1.13;;;11.60;99.90;;;;;;5034807;28;20194;-82
2023/10/22 08:31:40;;;;;;;2.00;1.25;;;11.60;99.90;;;;;;5029449;28;20522;-87
2023/10/22 08:34:09;;;;;;;1.40;1.00;;;11.70;99.90;;;;;;5026547;28;20197;-87
2023/10/22 08:36:36;;;;;;;1.38;1.00;;;11.80;99.90;;;;;;5023509;28;20229;-86
2023/10/22 08:39:03;;;;;;;1.20;1.08;;;12.10;99.90;;;;;;5031772;28;20218;-85
2023/10/22 08:41:37;;;;;;;1.95;1.10;;;12.20;99.90;;;;;;5029355;28;20651;-86
2023/10/22 08:44:06;;;;;;;2.75;1.23;;;12.50;99.20;;;;;;5030757;28;20189;-85
2023/10/22 08:46:34;;;;;;;1.35;1.20;;;12.60;98.50;;;;;;5027266;28;20538;-85
2023/10/22 08:49:06;;;;;;;1.75;1.10;;;12.70;97.50;;;;;;5026575;28;20287;-85
2023/10/22 08:51:35;;;;;;;1.85;1.40;;;12.90;98.00;;;;;;5030117;28;20225;-85
2023/10/22 08:54:04;;;;;;;2.33;1.40;;;13.10;97.00;;;;;;5028260;28;20195;-85
2023/10/22 08:56:32;;;;;;;1.67;1.10;;;13.10;97.20;;;;;;5025981;28;20226;-86
2023/10/22 08:59:02;;;;;;;2.20;1.20;;;13.40;97.00;;;;;;5024243;28;20195;-87
2023/10/22 09:01:28;;;;;;;1.88;1.23;;;14.20;96.40;;;;;;5026278;28;20850;-85
2023/10/22 09:03:56;;;;;;;1.30;1.10;;;15.30;93.80;;;;;;5026859;28;20203;-85
2023/10/22 09:06:23;;;;;;;1.58;0.98;;;16.20;90.10;;;;;;5034230;28;20206;-86
2023/10/22 09:08:52;;;;;;;3.10;1.20;;;17.10;80.70;;;;;;5029656;28;20198;-85
2023/10/22 09:11:20;;;;;;;1.00;0.90;;;18.30;51.90;;;;;;5031968;28;20210;-84
2023/10/22 09:13:47;;;;;;;1.88;1.13;;;19.30;44.30;;;;;;5030552;28;20583;-84
2023/10/22 09:16:31;;;;;;;3.13;1.30;;;20.70;32.60;;;;;;5029338;28;20841;-86
2023/10/22 09:18:58;;;;;;;3.67;1.40;;;21.60;25.10;;;;;;5031366;28;20206;-85
2023/10/22 09:21:40;;;;;;;3.28;1.55;;;22.40;19.10;;;;;;5030233;28;20253;-85
2023/10/22 09:24:10;;;;;;;1.48;1.25;;;22.20;19.30;;;;;;5030993;28;20193;-87
2023/10/22 09:26:44;;;;;;;2.03;1.30;;;22.00;18.90;;;;;;5033162;28;20198;-86
2023/10/22 09:29:11;;;;;;;1.77;1.38;;;22.00;17.30;;;;;;5032138;28;20217;-85
2023/10/22 09:31:38;;;;;;;2.58;1.50;;;21.70;18.30;;;;;;5031159;28;20282;-86
2023/10/22 09:34:08;;;;;;;1.90;1.38;;;21.20;18.60;;;;;;5032822;28;20193;-86
2023/10/22 09:36:51;;;;;;;2.90;1.30;;;22.00;17.00;;;;;;5032803;28;20217;-86
2023/10/22 09:39:33;;;;;;;1.48;1.33;;;22.50;15.80;;;;;;5029833;28;20213;-86
2023/10/22 09:42:01;;;;;;;2.35;1.40;;;22.60;16.30;;;;;;5033221;28;20528;-86
2023/10/22 09:44:29;;;;;;;1.55;1.40;;;22.00;16.70;;;;;;5035818;28;20208;-86
2023/10/22 09:47:00;;;;;;;1.50;1.30;;;21.90;17.40;;;;;;5032807;28;20238;-86
2023/10/22 09:49:29;;;;;;;1.95;1.40;;;21.80;17.70;;;;;;5033139;28;20228;-86
2023/10/22 09:51:59;;;;;;;1.95;1.50;;;21.40;18.20;;;;;;5029586;28;20709;-86
2023/10/22 09:54:37;;;;;;;1.40;1.30;;;20.90;19.30;;;;;;5030937;28;20202;-86
2023/10/22 09:57:08;;;;;;;2.70;1.30;;;21.40;18.10;;;;;;5032705;28;20364;-86
2023/10/22 09:59:36;;;;;;;1.70;1.23;;;21.00;18.50;;;;;;5034962;28;20198;-87
2023/10/22 10:02:04;;;;;;;1.63;1.48;;;20.70;19.50;;;;;;5030571;28;20222;-86
2023/10/22 10:04:34;;;;;;;2.78;1.40;;;20.30;20.40;;;;;;5030729;28;20832;-86
2023/10/22 10:07:03;;;;;;;1.85;1.50;;;19.90;22.30;;;;;;5032562;28;20964;-86
2023/10/22 10:09:33;;;;;;;1.63;1.40;;;19.90;22.40;;;;;;5037171;28;20220;-86
2023/10/22 10:12:01;;;;;;;1.30;1.20;;;20.20;22.00;;;;;;5036424;28;20193;-86
2023/10/22 10:14:47;;;;;;;2.22;1.30;;;20.60;19.50;;;;;;5033331;28;20210;-87
2023/10/22 10:17:15;;;;;;;1.85;1.30;;;20.40;20.00;;;;;;5026770;28;20202;-89
2023/10/22 10:19:42;;;;;;;2.88;1.30;;;20.10;21.30;;;;;;5031950;28;20200;-87
2023/10/22 10:22:09;;;;;;;1.42;1.23;;;19.90;20.20;;;;;;5029791;28;20242;-87
2023/10/22 10:24:38;;;;;;;2.08;1.30;;;19.60;21.20;;;;;;5031717;28;20229;-86
2023/10/22 10:27:24;;;;;;;1.80;1.30;;;19.90;21.80;;;;;;5037341;28;20201;-85
2023/10/22 10:30:17;;;;;;;2.05;1.48;;;19.70;21.90;;;;;;5032220;28;20201;-88
2023/10/22 10:32:45;;;;;;;1.70;1.30;;;20.00;22.30;;;;;;5032064;28;20194;-88
2023/10/22 10:35:13;;;;;;;2.92;1.30;;;20.40;19.90;;;;;;5030776;28;20643;-89
2023/10/22 10:37:40;;;;;;;2.35;1.33;;;19.90;22.10;;;;;;5029165;28;20252;-86
2023/10/22 10:40:10;;;;;;;1.10;1.00;;;19.70;22.50;;;;;;5031150;28;20221;-85
2023/10/22 10:42:50;;;;;;;1.52;1.27;;;19.30;22.90;;;;;;5031572;28;20194;-84
2023/10/22 10:45:18;;;;;;;2.67;1.30;;;19.20;26.80;;;;;;5032864;28;20197;-82
2023/10/22 10:47:45;;;;;;;1.45;1.20;;;19.30;24.10;;;;;;5031014;28;20281;-86
2023/10/22 10:50:18;;;;;;;2.45;1.30;;;19.40;26.20;;;;;;5029533;28;20597;-87
2023/10/22 10:52:59;;;;;;;2.13;1.33;;;19.50;22.30;;;;;;5027537;28;20210;-88
2023/10/22 10:55:35;;;;;;;1.30;1.20;;;19.20;20.90;;;;;;5028761;28;20195;-88
2023/10/22 10:58:03;;;;;;;2.28;1.17;;;18.80;21.80;;;;;;5027670;28;20226;-87
2023/10/22 11:00:31;;;;;;;1.50;1.13;;;19.10;20.60;;;;;;5024892;28;20199;-87
2023/10/22 11:03:01;;;;;;;1.67;1.17;;;19.20;20.10;;;;;;5032480;28;20202;-89
2023/10/22 11:05:35;;;;;;;1.30;1.20;;;18.90;22.00;;;;;;5032506;28;20202;-87
2023/10/22 11:08:04;;;;;;;1.10;1.00;;;18.90;20.00;;;;;;5028890;28;20206;-87
2023/10/22 11:10:33;;;;;;;2.75;1.00;;;19.00;23.10;;;;;;5034031;28;20210;-92
2023/10/22 11:15:46;;;;;;;1.48;1.10;;;18.60;20.70;;;;;;5034407;28;20201;-87
2023/10/22 11:18:13;;;;;;;1.45;1.00;;;18.60;21.20;;;;;;5035381;28;20219;-87
2023/10/22 11:20:40;;;;;;;5.18;1.10;;;18.60;21.90;;;;;;5029294;28;20191;-87
2023/10/22 11:23:16;;;;;;;1.50;1.00;;;18.60;22.20;;;;;;5027553;28;20643;-85
2023/10/22 11:25:45;;;;;;;1.55;1.20;;;18.60;20.70;;;;;;5019410;28;20242;-89
2023/10/22 11:28:13;;;;;;;0.93;0.80;;;18.50;20.90;;;;;;5028214;28;20202;-87
2023/10/22 11:30:41;;;;;;;2.60;1.00;;;18.20;20.60;;;;;;5033548;28;20194;-90
2023/10/22 11:33:09;;;;;;;2.47;1.10;;;17.70;23.00;;;;;;5029313;28;20202;-89
2023/10/22 11:35:37;;;;;;;1.83;1.30;;;17.50;23.50;;;;;;5023547;28;20224;-88
2023/10/22 11:38:04;;;;;;;1.30;1.20;;;17.10;23.40;;;;;;5025194;28;20710;-88
2023/10/22 11:40:34;;;;;;;2.63;1.10;;;16.70;25.70;;;;;;5032480;28;20733;-88
2023/10/22 11:43:04;;;;;;;3.25;1.27;;;16.50;28.20;;;;;;5031424;28;20209;-86
2023/10/22 11:45:34;;;;;;;1.67;1.20;;;16.40;29.00;;;;;;5033221;28;20558;-87
2023/10/22 11:48:13;;;;;;;2.42;1.05;;;16.20;28.90;;;;;;5033142;28;20350;-86
2023/10/22 11:50:44;;;;;;;1.27;1.02;;;16.10;28.80;;;;;;5029432;28;20214;-86
2023/10/22 11:53:11;;;;;;;1.70;1.02;;;16.20;28.90;;;;;;5027281;28;20203;-87
2023/10/22 11:55:38;;;;;;;2.47;1.02;;;16.00;31.00;;;;;;5029890;28;20277;-88
2023/10/22 11:58:17;;;;;;;2.80;1.00;;;16.00;30.10;;;;;;5030679;28;20225;-87
2023/10/22 12:00:44;;;;;;;2.28;1.10;;;15.90;28.60;;;;;;5029094;28;20183;-87
2023/10/22 12:03:11;;;;;;;2.55;1.10;;;15.70;30.60;;;;;;5028063;28;20198;-88
2023/10/22 12:05:38;;;;;;;1.65;1.20;;;15.80;31.20;;;;;;5028219;28;20194;-87
2023/10/22 12:08:05;;;;;;;2.97;1.20;;;16.00;31.10;;;;;;5024533;28;20211;-87
2023/10/22 12:10:32;;;;;;;2.10;1.10;;;15.90;31.40;;;;;;5030392;28;20686;-88
2023/10/22 12:12:59;;;;;;;1.58;0.95;;;15.70;31.90;;;;;;5023761;28;20194;-90
2023/10/22 12:18:09;;;;;;;1.83;1.20;;;15.40;33.90;;;;;;5031239;28;20233;-90
2023/10/22 12:20:36;;;;;;;3.10;1.30;;;15.40;35.60;;;;;;5028395;28;20594;-90
2023/10/22 12:23:03;;;;;;;1.75;1.00;;;15.50;35.10;;;;;;5029388;28;20728;-90
2023/10/22 12:25:31;;;;;;;2.58;1.25;;;15.40;37.60;;;;;;5027830;28;20229;-87
2023/10/22 12:27:58;;;;;;;4.25;1.77;;;15.60;34.20;;;;;;5023615;28;20206;-88
2023/10/22 12:30:26;;;;;;;2.08;1.10;;;15.80;30.00;;;;;;5029268;28;20213;-87
2023/10/22 12:32:53;;;;;;;1.75;1.33;;;15.80;31.10;;;;;;5030634;28;20197;-88
2023/10/22 12:35:20;;;;;;;1.52;1.00;;;15.80;30.60;;;;;;5022822;28;20207;-87
2023/10/22 12:37:49;;;;;;;1.38;1.08;;;15.90;28.70;;;;;;5027143;28;20881;-87
2023/10/22 12:40:16;;;;;;;1.27;0.90;;;16.10;28.80;;;;;;5039676;28;20198;-86
2023/10/22 12:42:43;;;;;;;2.13;1.05;;;16.20;28.00;;;;;;5027823;28;20230;-87
2023/10/22 12:45:11;;;;;;;1.40;0.95;;;16.30;27.40;;;;;;5033382;28;20195;-87
2023/10/22 12:47:40;;;;;;;2.28;1.05;;;16.10;26.00;;;;;;5034021;28;20562;-88
2023/10/22 12:50:07;;;;;;;1.55;1.10;;;16.20;28.40;;;;;;5027175;28;20202;-87
2023/10/22 12:52:34;;;;;;;1.20;0.95;;;16.30;29.00;;;;;;5026686;28;20571;-89
2023/10/22 12:55:04;;;;;;;1.90;1.05;;;16.30;27.30;;;;;;5039021;28;20557;-87
2023/10/22 12:57:32;;;;;;;2.15;0.85;;;16.10;27.50;;;;;;5032801;28;20280;-87
2023/10/22 13:00:00;;;;;;;2.17;1.10;;;15.90;26.90;;;;;;5034385;28;20209;-87
2023/10/22 13:02:33;;;;;;;1.73;0.98;;;15.80;27.30;;;;;;5034816;28;20206;-87
2023/10/22 13:05:01;;;;;;;2.28;1.15;;;15.60;28.30;;;;;;5033480;28;20218;-88
2023/10/22 13:07:28;;;;;;;0.98;0.90;;;15.40;29.30;;;;;;5027967;28;20211;-87
2023/10/22 13:09:55;;;;;;;3.13;1.25;;;15.40;28.20;;;;;;5030739;28;20190;-88
2023/10/22 13:12:22;;;;;;;1.30;0.80;;;15.50;28.30;;;;;;5028567;28;20198;-88
2023/10/22 13:14:48;;;;;;;2.60;1.33;;;15.80;28.50;;;;;;5030646;28;20710;-88
2023/10/22 13:17:15;;;;;;;2.13;0.90;;;16.00;28.70;;;;;;5031721;28;20229;-88
2023/10/22 13:19:42;;;;;;;1.10;1.00;;;16.00;25.10;;;;;;5032897;28;20561;-89
2023/10/22 13:22:10;;;;;;;1.88;0.80;;;15.90;26.20;;;;;;5033768;28;20194;-87
2023/10/22 13:24:37;;;;;;;2.28;1.23;;;15.60;28.30;;;;;;5036055;28;20199;-88
2023/10/22 13:27:05;;;;;;;2.58;1.00;;;15.60;28.30;;;;;;5035351;28;20206;-87
2023/10/22 13:29:32;;;;;;;1.60;1.23;;;15.60;28.30;;;;;;5034553;28;20205;-88
2023/10/22 13:31:59;;;;;;;2.78;1.00;;;15.50;28.30;;;;;;5027284;28;20254;-87
2023/10/22 13:34:27;;;;;;;3.58;1.02;;;15.60;29.70;;;;;;5027516;28;20214;-88
2023/10/22 13:36:54;;;;;;;2.78;1.05;;;15.80;28.70;;;;;;5031284;28;20888;-85
2023/10/22 13:39:22;;;;;;;1.17;1.00;;;16.00;28.70;;;;;;5029666;28;20538;-88
2023/10/22 13:41:49;;;;;;;2.50;1.10;;;16.20;28.90;;;;;;5032476;28;20191;-85
2023/10/22 13:44:16;;;;;;;1.17;1.05;;;16.40;27.70;;;;;;5032142;28;20209;-86
2023/10/22 13:46:42;;;;;;;1.83;0.88;;;16.50;25.20;;;;;;5029903;28;20557;-87
2023/10/22 13:49:09;;;;;;;1.33;0.90;;;16.40;24.90;;;;;;5028785;28;20203;-87